createdAt,value
2023-03-16T04:46:04.752Z,87.90
2023-03-16T04:48:34.467Z,87.90
2023-03-16T04:51:03.751Z,88.10
2023-03-16T04:53:31.917Z,88.30
2023-03-16T04:55:59.226Z,87.60
2023-03-16T04:58:27.209Z,88.20
2023-03-16T05:00:55.298Z,88.70
2023-03-16T05:03:22.449Z,88.90
2023-03-16T05:05:49.956Z,88.60
2023-03-16T05:08:17.009Z,88.70
2023-03-16T05:10:44.753Z,88.50
2023-03-16T05:13:11.640Z,88.30
2023-03-16T05:15:38.692Z,88.30
2023-03-16T05:18:05.593Z,88.40
2023-03-16T05:20:32.473Z,88.60
2023-03-16T05:22:59.456Z,88.20
2023-03-16T05:25:26.356Z,88.70
2023-03-16T05:27:54.301Z,88.70
2023-03-16T05:30:21.545Z,88.80
2023-03-16T05:32:48.519Z,88.20
2023-03-16T05:35:15.504Z,88.70
2023-03-16T05:37:43.553Z,89.10
2023-03-16T05:40:16.998Z,89.30
2023-03-16T05:42:44.623Z,89.30
2023-03-16T05:45:12.266Z,89.10
2023-03-16T05:47:39.383Z,88.40
2023-03-16T05:50:08.930Z,88.30
2023-03-16T05:52:35.874Z,88.00
2023-03-16T05:55:02.822Z,87.90
2023-03-16T05:57:29.738Z,88.20
2023-03-16T05:59:56.622Z,87.20
2023-03-16T06:02:23.733Z,88.20
2023-03-16T06:04:50.811Z,88.80
2023-03-16T06:07:17.748Z,89.20
2023-03-16T06:09:44.638Z,89.20
2023-03-16T06:12:11.656Z,89.50
2023-03-16T06:14:38.526Z,89.70
2023-03-16T06:17:05.484Z,89.90
2023-03-16T06:19:32.826Z,89.30
2023-03-16T06:21:59.752Z,89.60
2023-03-16T06:24:26.702Z,89.80
2023-03-16T06:26:53.649Z,89.90
2023-03-16T06:29:20.666Z,89.90
2023-03-16T06:31:47.683Z,90.20
2023-03-16T06:34:14.683Z,90.30
2023-03-16T06:36:41.590Z,90.80
2023-03-16T06:39:09.440Z,90.70
2023-03-16T06:41:36.330Z,90.40
2023-03-16T06:44:03.325Z,90.80
2023-03-16T06:46:30.227Z,90.80
2023-03-16T06:48:57.094Z,90.90
2023-03-16T06:51:24.056Z,91.00
2023-03-16T06:53:51.007Z,91.30
2023-03-16T06:56:17.952Z,91.20
2023-03-16T06:58:45.070Z,91.20
2023-03-16T07:01:12.496Z,91.40
2023-03-16T07:03:39.501Z,91.80
2023-03-16T07:06:06.575Z,91.60
2023-03-16T07:08:33.506Z,92.00
2023-03-16T07:11:00.445Z,91.80
2023-03-16T07:13:27.440Z,91.80
2023-03-16T07:15:54.401Z,92.10
2023-03-16T07:18:21.334Z,91.50
2023-03-16T07:20:48.251Z,91.50
2023-03-16T07:23:15.273Z,91.20
2023-03-16T07:25:42.437Z,91.10
2023-03-16T07:28:09.351Z,91.10
2023-03-16T07:30:36.281Z,91.20
2023-03-16T07:33:03.507Z,91.20
2023-03-16T07:35:30.445Z,91.00
2023-03-16T07:37:57.717Z,91.10
2023-03-16T07:40:24.686Z,91.10
2023-03-16T07:42:51.693Z,91.00
2023-03-16T07:45:18.770Z,90.90
2023-03-16T07:47:45.739Z,90.80
2023-03-16T07:50:13.643Z,90.90
2023-03-16T07:52:40.565Z,90.90
2023-03-16T07:55:07.614Z,90.90
2023-03-16T07:57:34.570Z,90.90
2023-03-16T08:00:05.043Z,90.90
2023-03-16T08:02:32.060Z,90.90
2023-03-16T08:04:59.213Z,90.90
2023-03-16T08:07:26.166Z,90.90
2023-03-16T08:09:53.140Z,90.80
2023-03-16T08:12:20.055Z,90.60
2023-03-16T08:14:47.115Z,91.00
2023-03-16T08:17:14.208Z,91.00
2023-03-16T08:19:42.563Z,90.90
2023-03-16T08:22:09.657Z,90.80
2023-03-16T08:24:36.557Z,90.90
2023-03-16T08:27:03.584Z,90.80
2023-03-16T08:29:30.527Z,90.80
2023-03-16T08:31:57.573Z,90.50
2023-03-16T08:34:24.794Z,90.20
2023-03-16T08:36:51.824Z,90.10
2023-03-16T08:39:18.736Z,89.90
2023-03-16T08:41:47.055Z,88.60
2023-03-16T08:44:13.998Z,88.70
2023-03-16T08:46:42.228Z,86.80
2023-03-16T08:49:09.359Z,88.80
2023-03-16T08:51:36.958Z,88.70
2023-03-16T08:54:03.925Z,88.90
2023-03-16T08:56:30.914Z,89.60
2023-03-16T08:58:58.460Z,89.20
2023-03-16T09:01:25.735Z,89.20
2023-03-16T09:03:53.028Z,89.50
2023-03-16T09:06:20.151Z,89.30
2023-03-16T09:08:47.705Z,88.70
2023-03-16T09:11:16.051Z,87.90
2023-03-16T09:13:43.304Z,88.10
2023-03-16T09:16:12.006Z,88.70
2023-03-16T09:18:39.875Z,88.30
2023-03-16T09:21:08.018Z,87.80
2023-03-16T09:23:37.451Z,88.40
2023-03-16T09:26:07.486Z,88.50
2023-03-16T09:28:35.874Z,88.60
2023-03-16T09:31:03.341Z,88.80
2023-03-16T09:33:32.035Z,88.40
2023-03-16T09:35:59.606Z,88.70
2023-03-16T09:38:26.620Z,88.60
2023-03-16T09:41:01.879Z,88.50
2023-03-16T09:43:47.357Z,87.80
2023-03-16T09:46:17.300Z,86.30
2023-03-16T09:48:45.027Z,86.30
2023-03-16T09:51:20.191Z,87.70
2023-03-16T09:53:48.927Z,87.30
2023-03-16T09:56:20.260Z,86.50
2023-03-16T09:58:47.214Z,87.10
2023-03-16T10:01:14.423Z,86.20
2023-03-16T10:03:44.463Z,85.50
2023-03-16T10:06:12.471Z,85.40
2023-03-16T10:08:40.785Z,86.20
2023-03-16T10:11:10.686Z,87.00
2023-03-16T10:13:49.608Z,85.90
2023-03-16T10:16:25.591Z,85.40
2023-03-16T10:19:02.511Z,86.80
2023-03-16T10:21:30.555Z,85.30
2023-03-16T10:24:02.079Z,85.10
2023-03-16T10:26:33.906Z,85.30
2023-03-16T10:29:01.163Z,85.70
2023-03-16T10:31:28.352Z,84.70
2023-03-16T10:33:58.486Z,86.00
2023-03-16T10:36:30.191Z,85.10
2023-03-16T10:38:58.801Z,84.50
2023-03-16T10:41:29.943Z,84.40
2023-03-16T10:43:57.509Z,83.90
2023-03-16T10:46:25.814Z,83.80
2023-03-16T10:49:00.377Z,84.40
2023-03-16T10:51:45.676Z,84.40
2023-03-16T10:54:19.775Z,83.50
2023-03-16T10:56:46.715Z,83.20
2023-03-16T10:59:26.414Z,84.90
2023-03-16T11:01:54.022Z,83.30
2023-03-16T11:04:21.071Z,82.50
2023-03-16T11:06:55.448Z,83.20
2023-03-16T11:09:23.915Z,82.20
2023-03-16T11:11:51.251Z,82.40
2023-03-16T11:14:20.156Z,81.10
2023-03-16T11:17:10.516Z,81.40
2023-03-16T11:19:50.111Z,81.00
2023-03-16T11:22:17.802Z,81.70
2023-03-16T11:24:44.767Z,79.10
2023-03-16T11:27:19.979Z,79.10
2023-03-16T11:30:07.195Z,81.50
2023-03-16T11:32:38.202Z,79.70
2023-03-16T11:35:16.648Z,81.30
2023-03-16T11:38:00.508Z,79.10
2023-03-16T11:40:46.041Z,79.20
2023-03-16T11:43:25.423Z,79.20
2023-03-16T11:46:04.234Z,78.40
2023-03-16T11:48:40.234Z,77.80
2023-03-16T11:51:19.375Z,76.60
2023-03-16T11:54:04.390Z,78.00
2023-03-16T11:56:36.125Z,77.50
2023-03-16T11:59:09.040Z,75.70
2023-03-16T12:01:41.073Z,75.50
2023-03-16T12:04:25.220Z,75.70
2023-03-16T12:06:52.446Z,78.20
2023-03-16T12:09:35.007Z,77.40
2023-03-16T12:12:05.809Z,77.50
2023-03-16T12:14:35.160Z,76.20
2023-03-16T12:17:11.260Z,78.30
2023-03-16T12:19:53.630Z,76.30
2023-03-16T12:22:22.736Z,76.90
2023-03-16T12:24:50.300Z,76.50
2023-03-16T12:27:20.439Z,76.60
2023-03-16T12:30:11.497Z,76.70
2023-03-16T12:32:38.483Z,77.80
2023-03-16T12:35:13.320Z,76.50
2023-03-16T12:38:05.913Z,75.80
2023-03-16T12:40:35.533Z,73.10
2023-03-16T12:43:17.543Z,72.40
2023-03-16T12:45:47.978Z,71.90
2023-03-16T12:48:27.270Z,70.60
2023-03-16T12:50:55.935Z,71.40
2023-03-16T12:53:43.544Z,73.50
2023-03-16T12:56:12.183Z,73.30
2023-03-16T12:58:50.178Z,71.40
2023-03-16T13:01:18.760Z,70.80
2023-03-16T13:03:49.622Z,71.40
2023-03-16T13:06:18.205Z,70.00
2023-03-16T13:08:48.046Z,70.40
2023-03-16T13:11:16.277Z,68.20
2023-03-16T13:14:01.637Z,70.40
2023-03-16T13:16:33.105Z,71.00
2023-03-16T13:19:00.114Z,67.40
2023-03-16T13:21:36.271Z,67.90
2023-03-16T13:24:25.340Z,66.50
2023-03-16T13:26:54.082Z,66.50
2023-03-16T13:29:21.521Z,66.00
2023-03-16T13:31:48.848Z,65.70
2023-03-16T13:34:20.547Z,69.20
2023-03-16T13:36:50.019Z,67.40
2023-03-16T13:39:20.938Z,65.40
2023-03-16T13:42:18.363Z,65.70
2023-03-16T13:44:45.395Z,66.00
2023-03-16T13:47:16.817Z,67.80
2023-03-16T13:49:50.788Z,65.80
2023-03-16T13:52:17.913Z,65.80
2023-03-16T13:54:44.908Z,67.90
2023-03-16T13:57:12.555Z,65.30
2023-03-16T13:59:41.885Z,63.50
2023-03-16T14:02:17.348Z,63.70
2023-03-16T14:04:44.238Z,62.60
2023-03-16T14:07:16.877Z,66.20
2023-03-16T14:09:45.262Z,63.20
2023-03-16T14:12:16.255Z,65.40
2023-03-16T14:14:46.250Z,64.40
2023-03-16T14:17:15.868Z,62.90
2023-03-16T14:19:45.663Z,64.50
2023-03-16T14:22:13.666Z,64.90
2023-03-16T14:24:41.087Z,64.70
2023-03-16T14:27:17.048Z,61.70
2023-03-16T14:29:44.284Z,62.90
2023-03-16T14:32:23.293Z,63.70
2023-03-16T14:34:51.158Z,61.70
2023-03-16T14:37:19.303Z,64.00
2023-03-16T14:39:57.973Z,61.70
2023-03-16T14:42:30.225Z,61.40
2023-03-16T14:44:58.673Z,63.50
2023-03-16T14:47:29.390Z,60.40
2023-03-16T14:49:57.456Z,63.70
2023-03-16T14:52:27.229Z,66.40
2023-03-16T14:54:55.258Z,64.50
2023-03-16T14:57:22.388Z,61.00
2023-03-16T14:59:49.316Z,60.90
2023-03-16T15:02:25.139Z,63.70
2023-03-16T15:04:52.624Z,64.00
2023-03-16T15:07:25.179Z,62.10
2023-03-16T15:09:53.842Z,62.00
2023-03-16T15:12:21.585Z,64.80
2023-03-16T15:15:07.135Z,61.00
2023-03-16T15:17:34.038Z,62.20
2023-03-16T15:20:01.207Z,64.50
2023-03-16T15:22:29.893Z,64.00
2023-03-16T15:24:58.104Z,61.30
2023-03-16T15:27:26.220Z,63.50
2023-03-16T15:29:53.150Z,61.00
2023-03-16T15:32:20.161Z,60.40
2023-03-16T15:34:47.098Z,63.00
2023-03-16T15:37:17.413Z,63.30
2023-03-16T15:39:46.208Z,65.00
2023-03-16T15:42:14.648Z,60.60
2023-03-16T15:44:41.619Z,62.90
2023-03-16T15:47:09.186Z,62.50
2023-03-16T15:49:47.185Z,63.50
2023-03-16T15:52:34.956Z,63.90
2023-03-16T15:55:07.628Z,66.50
2023-03-16T15:57:35.480Z,64.40
2023-03-16T16:00:03.296Z,66.10
2023-03-16T16:02:31.205Z,62.50
2023-03-16T16:04:58.502Z,64.20
2023-03-16T16:07:25.467Z,63.00
2023-03-16T16:09:52.708Z,64.20
2023-03-16T16:12:21.384Z,68.80
2023-03-16T16:14:48.260Z,68.60
2023-03-16T16:17:36.497Z,64.50
2023-03-16T16:20:22.777Z,63.60
2023-03-16T16:22:51.835Z,62.50
2023-03-16T16:25:19.230Z,63.80
2023-03-16T16:27:46.862Z,65.10
2023-03-16T16:30:24.320Z,66.70
2023-03-16T16:32:52.207Z,64.70
2023-03-16T16:35:20.673Z,64.20
2023-03-16T16:37:48.255Z,65.90
2023-03-16T16:40:17.514Z,68.50
2023-03-16T16:42:45.551Z,73.90
2023-03-16T16:45:17.036Z,73.00
2023-03-16T16:47:44.450Z,73.40
2023-03-16T16:50:15.653Z,70.70
2023-03-16T16:52:42.830Z,70.00
2023-03-16T16:55:09.851Z,70.50
2023-03-16T16:57:37.001Z,69.60
2023-03-16T17:00:05.230Z,70.00
2023-03-16T17:02:40.424Z,70.10
2023-03-16T17:05:22.535Z,69.40
2023-03-16T17:07:50.200Z,72.00
2023-03-16T17:10:27.150Z,73.90
2023-03-16T17:12:54.765Z,72.70
2023-03-16T17:15:32.364Z,76.70
2023-03-16T17:18:03.111Z,75.10
2023-03-16T17:20:30.193Z,76.60
2023-03-16T17:22:58.604Z,75.80
2023-03-16T17:25:25.997Z,76.20
2023-03-16T17:27:54.933Z,74.10
2023-03-16T17:30:23.348Z,75.00
2023-03-16T17:32:51.017Z,74.40
2023-03-16T17:35:18.687Z,73.70
2023-03-16T17:37:47.754Z,72.80
2023-03-16T17:40:18.882Z,74.70
2023-03-16T17:42:46.743Z,75.70
2023-03-16T17:45:18.174Z,75.50
2023-03-16T17:47:45.132Z,75.90
2023-03-16T17:50:16.792Z,76.70
2023-03-16T17:52:43.708Z,76.90
2023-03-16T17:55:11.444Z,75.50
2023-03-16T17:57:38.616Z,74.50
2023-03-16T18:00:18.374Z,76.30
2023-03-16T18:02:50.026Z,74.00
2023-03-16T18:05:22.055Z,73.80
2023-03-16T18:07:49.334Z,73.10
2023-03-16T18:10:27.170Z,74.50
2023-03-16T18:12:59.405Z,75.40
2023-03-16T18:15:27.956Z,73.40
2023-03-16T18:17:55.383Z,73.50
2023-03-16T18:20:23.995Z,74.10
2023-03-16T18:22:50.912Z,74.30
2023-03-16T18:25:39.230Z,74.30
2023-03-16T18:28:07.731Z,73.50
2023-03-16T18:30:36.890Z,73.70
2023-03-16T18:33:05.213Z,74.10
2023-03-16T18:35:32.890Z,74.20
2023-03-16T18:38:00.142Z,75.20
2023-03-16T18:40:28.950Z,74.70
2023-03-16T18:42:56.019Z,74.60
2023-03-16T18:45:31.674Z,74.90
2023-03-16T18:47:58.987Z,75.50
2023-03-16T18:50:27.608Z,74.80
2023-03-16T18:52:55.201Z,73.70
2023-03-16T18:55:24.434Z,73.60
2023-03-16T18:57:52.828Z,73.50
2023-03-16T19:00:24.305Z,73.70
2023-03-16T19:02:56.142Z,74.30
2023-03-16T19:05:30.132Z,76.20
2023-03-16T19:07:57.285Z,76.40
2023-03-16T19:10:24.165Z,76.50
2023-03-16T19:12:51.351Z,75.20
2023-03-16T19:15:20.251Z,74.70
2023-03-16T19:17:47.729Z,75.40
2023-03-16T19:20:16.452Z,75.60
2023-03-16T19:22:44.447Z,77.40
2023-03-16T19:25:29.245Z,78.10
2023-03-16T19:27:56.695Z,77.50
2023-03-16T19:30:27.897Z,76.90
2023-03-16T19:32:55.959Z,77.60
2023-03-16T19:35:28.761Z,78.10
2023-03-16T19:38:01.098Z,78.90
2023-03-16T19:40:28.272Z,78.40
2023-03-16T19:42:55.277Z,78.40
2023-03-16T19:45:28.912Z,78.50
2023-03-16T19:47:56.110Z,77.80
2023-03-16T19:50:24.242Z,77.50
2023-03-16T19:52:51.398Z,77.50
2023-03-16T19:55:21.161Z,77.40
2023-03-16T19:57:49.233Z,77.20
2023-03-16T20:00:17.622Z,77.70
2023-03-16T20:02:45.240Z,78.00
2023-03-16T20:05:16.569Z,78.60
2023-03-16T20:07:43.501Z,78.40
2023-03-16T20:10:16.043Z,78.70
2023-03-16T20:12:43.067Z,79.30
2023-03-16T20:15:14.760Z,79.30
2023-03-16T20:17:43.223Z,79.10
2023-03-16T20:20:20.818Z,79.30
2023-03-16T20:22:47.792Z,79.80
2023-03-16T20:25:15.469Z,79.50
2023-03-16T20:27:42.784Z,79.00
2023-03-16T20:30:18.703Z,78.10
2023-03-16T20:32:46.304Z,78.10
2023-03-16T20:35:18.623Z,78.20
2023-03-16T20:37:45.757Z,78.10
2023-03-16T20:40:12.939Z,78.30
2023-03-16T20:42:40.409Z,78.40
2023-03-16T20:45:17.708Z,78.00
2023-03-16T20:47:44.869Z,78.00
2023-03-16T20:50:17.328Z,78.30
2023-03-16T20:52:44.521Z,78.50
2023-03-16T20:55:16.462Z,78.50
2023-03-16T20:57:43.712Z,78.80
2023-03-16T21:00:17.937Z,78.80
2023-03-16T21:02:45.674Z,79.00
2023-03-16T21:05:14.023Z,79.60
2023-03-16T21:07:41.859Z,80.10
2023-03-16T21:10:09.373Z,80.10
2023-03-16T21:12:39.320Z,79.90
2023-03-16T21:15:16.145Z,79.70
2023-03-16T21:17:43.670Z,79.80
2023-03-16T21:20:15.908Z,79.70
2023-03-16T21:22:43.098Z,79.70
2023-03-16T21:25:17.424Z,79.80
2023-03-16T21:27:44.414Z,80.20
2023-03-16T21:30:18.337Z,80.70
2023-03-16T21:32:45.280Z,80.60
2023-03-16T21:35:13.209Z,80.50
2023-03-16T21:37:40.973Z,80.90
2023-03-16T21:40:21.320Z,80.90
2023-03-16T21:42:48.928Z,81.20
2023-03-16T21:45:16.597Z,81.20
2023-03-16T21:47:43.981Z,80.90
2023-03-16T21:50:22.197Z,80.00
2023-03-16T21:52:50.138Z,79.80
2023-03-16T21:55:23.596Z,80.30
2023-03-16T21:57:51.112Z,80.20
2023-03-16T22:00:25.714Z,80.60
2023-03-16T22:02:54.229Z,80.40
2023-03-16T22:05:35.022Z,80.40
2023-03-16T22:08:06.980Z,79.40
2023-03-16T22:10:33.949Z,79.60
2023-03-16T22:13:02.116Z,79.70
2023-03-16T22:15:29.395Z,80.30
2023-03-16T22:17:56.731Z,80.40
2023-03-16T22:20:27.079Z,80.80
2023-03-16T22:22:57.562Z,80.80
2023-03-16T22:25:25.382Z,80.80
2023-03-16T22:27:52.434Z,80.90
2023-03-16T22:30:21.482Z,81.10
2023-03-16T22:32:50.234Z,80.90
2023-03-16T22:35:25.191Z,80.80
2023-03-16T22:37:52.699Z,81.30
2023-03-16T22:40:19.933Z,81.10
2023-03-16T22:42:46.911Z,80.80
2023-03-16T22:45:33.256Z,81.30
2023-03-16T22:48:02.243Z,81.60
2023-03-16T22:50:32.874Z,81.00
2023-03-16T22:53:00.802Z,80.70
2023-03-16T22:55:29.836Z,81.20
2023-03-16T22:58:02.272Z,81.20
2023-03-16T23:00:29.392Z,81.30
2023-03-16T23:02:57.503Z,81.30
2023-03-16T23:05:29.291Z,81.20
2023-03-16T23:07:59.735Z,81.50
2023-03-16T23:10:30.310Z,81.40
2023-03-16T23:12:59.494Z,81.30
2023-03-16T23:15:28.446Z,81.50
2023-03-16T23:17:55.868Z,81.50
2023-03-16T23:20:28.089Z,81.70
2023-03-16T23:22:55.371Z,81.80
2023-03-16T23:25:22.832Z,82.40
2023-03-16T23:27:51.336Z,81.90
2023-03-16T23:30:18.396Z,82.00
2023-03-16T23:32:45.405Z,82.00
2023-03-16T23:35:31.010Z,81.90
2023-03-16T23:37:58.204Z,82.00
2023-03-16T23:40:26.280Z,82.30
2023-03-16T23:42:54.234Z,82.20
2023-03-16T23:45:24.141Z,82.30
2023-03-16T23:47:52.336Z,82.10
2023-03-16T23:50:23.377Z,82.40
2023-03-16T23:52:50.329Z,82.50
2023-03-16T23:55:17.780Z,82.50
2023-03-16T23:57:44.980Z,82.50
